createdAt,value
2018-07-27T00:01:19.704Z,20.55
2018-07-27T00:03:46.879Z,20.46
2018-07-27T00:06:14.070Z,20.45
2018-07-27T00:08:41.220Z,20.40
2018-07-27T00:11:08.400Z,20.36
2018-07-27T00:13:35.672Z,20.37
2018-07-27T00:16:02.852Z,20.30
2018-07-27T00:18:29.987Z,20.26
2018-07-27T00:20:57.178Z,20.24
2018-07-27T00:23:24.291Z,20.19
2018-07-27T00:25:51.409Z,20.17
2018-07-27T00:28:18.566Z,20.14
2018-07-27T00:30:45.701Z,20.09
2018-07-27T00:33:12.859Z,20.08
2018-07-27T00:35:40.144Z,20.09
2018-07-27T00:38:07.322Z,20.07
2018-07-27T00:40:34.480Z,20.04
2018-07-27T00:43:01.638Z,19.97
2018-07-27T00:45:28.747Z,20.00
2018-07-27T00:47:55.878Z,19.91
2018-07-27T00:50:23.036Z,19.90
2018-07-27T00:52:50.199Z,19.85
2018-07-27T00:55:17.328Z,19.84
2018-07-27T00:57:44.581Z,19.80
2018-07-27T01:00:11.718Z,19.82
2018-07-27T01:02:38.821Z,19.78
2018-07-27T01:05:05.997Z,19.77
2018-07-27T01:07:33.180Z,19.72
2018-07-27T01:10:00.342Z,19.78
2018-07-27T01:12:27.626Z,19.85
2018-07-27T01:14:54.808Z,19.85
2018-07-27T01:17:21.946Z,19.81
2018-07-27T01:19:49.250Z,19.76
2018-07-27T01:22:16.363Z,19.89
2018-07-27T01:24:43.550Z,19.83
2018-07-27T01:27:10.805Z,19.84
2018-07-27T01:29:37.932Z,19.83
2018-07-27T01:32:05.092Z,19.75
2018-07-27T01:34:32.265Z,19.68
2018-07-27T01:36:59.401Z,19.66
2018-07-27T01:39:26.536Z,19.64
2018-07-27T01:41:53.718Z,19.57
2018-07-27T01:44:20.897Z,19.57
2018-07-27T01:46:48.009Z,19.52
2018-07-27T01:49:15.264Z,19.49
2018-07-27T01:51:42.397Z,19.45
2018-07-27T01:54:09.524Z,19.44
2018-07-27T01:56:36.813Z,19.47
2018-07-27T01:59:04.012Z,19.48
2018-07-27T02:01:31.715Z,19.47
2018-07-27T02:03:58.889Z,19.47
2018-07-27T02:06:26.004Z,19.43
2018-07-27T02:08:53.148Z,19.42
2018-07-27T02:11:20.336Z,19.40
2018-07-27T02:13:47.509Z,19.37
2018-07-27T02:16:14.689Z,19.34
2018-07-27T02:18:41.977Z,19.30
2018-07-27T02:21:09.097Z,19.26
2018-07-27T02:23:36.285Z,19.25
2018-07-27T02:26:03.537Z,19.20
2018-07-27T02:28:30.660Z,19.18
2018-07-27T02:30:57.820Z,19.16
2018-07-27T02:33:25.034Z,19.14
2018-07-27T02:35:52.860Z,19.13
2018-07-27T02:38:19.993Z,19.11
2018-07-27T02:40:47.157Z,19.06
2018-07-27T02:43:14.266Z,19.05
2018-07-27T02:45:41.401Z,19.04
2018-07-27T02:48:08.580Z,19.00
2018-07-27T02:50:35.709Z,18.99
2018-07-27T02:53:03.301Z,18.96
2018-07-27T02:55:30.460Z,18.94
2018-07-27T02:57:57.650Z,18.91
2018-07-27T03:00:24.757Z,18.90
2018-07-27T03:02:52.004Z,18.86
2018-07-27T03:05:19.173Z,18.89
2018-07-27T03:07:46.276Z,18.85
2018-07-27T03:10:13.472Z,18.83
2018-07-27T03:12:40.642Z,18.82
2018-07-27T03:15:08.004Z,18.78
2018-07-27T03:17:35.337Z,18.77
2018-07-27T03:20:02.516Z,18.76
2018-07-27T03:22:29.662Z,18.74
2018-07-27T03:24:57.470Z,18.73
2018-07-27T03:27:24.603Z,18.73
2018-07-27T03:29:51.752Z,18.74
2018-07-27T03:32:18.991Z,18.73
2018-07-27T03:34:46.118Z,18.74
2018-07-27T03:37:13.328Z,18.75
2018-07-27T03:39:40.588Z,18.76
2018-07-27T03:42:07.752Z,18.76
2018-07-27T03:44:34.887Z,18.76
2018-07-27T03:47:02.113Z,18.80
2018-07-27T03:49:29.277Z,18.79
2018-07-27T03:51:56.411Z,18.83
2018-07-27T03:54:23.718Z,18.86
2018-07-27T03:56:50.894Z,18.89
2018-07-27T03:59:18.029Z,18.91
2018-07-27T04:01:45.251Z,18.93
2018-07-27T04:04:12.400Z,18.95
2018-07-27T04:06:39.525Z,18.96
2018-07-27T04:09:07.648Z,18.99
2018-07-27T04:11:34.846Z,19.02
2018-07-27T04:14:02.069Z,19.06
2018-07-27T04:16:29.402Z,19.07
2018-07-27T04:18:56.553Z,19.11
2018-07-27T04:21:23.826Z,19.14
2018-07-27T04:23:51.008Z,19.17
2018-07-27T04:26:18.139Z,19.24
2018-07-27T04:28:45.261Z,19.31
2018-07-27T04:31:12.429Z,19.38
2018-07-27T04:33:39.565Z,19.41
2018-07-27T04:36:06.757Z,19.49
2018-07-27T04:38:34.018Z,19.57
2018-07-27T04:41:01.147Z,19.63
2018-07-27T04:43:28.309Z,19.70
2018-07-27T04:45:55.572Z,19.77
2018-07-27T04:48:22.696Z,19.82
2018-07-27T04:50:49.808Z,19.89
2018-07-27T04:53:17.055Z,20.00
2018-07-27T04:55:44.209Z,20.10
2018-07-27T04:58:11.406Z,20.20
2018-07-27T05:00:38.621Z,20.28
2018-07-27T05:03:05.741Z,20.36
2018-07-27T05:05:32.840Z,20.42
2018-07-27T05:08:00.105Z,20.53
2018-07-27T05:10:32.902Z,20.70
2018-07-27T05:13:00.197Z,20.78
2018-07-27T05:15:27.336Z,20.97
2018-07-27T05:17:54.467Z,21.08
2018-07-27T05:20:21.721Z,21.14
2018-07-27T05:22:48.873Z,21.29
2018-07-27T05:25:16.089Z,21.59
2018-07-27T05:27:43.275Z,21.65
2018-07-27T05:30:10.398Z,21.83
2018-07-27T05:32:37.520Z,21.89
2018-07-27T05:35:04.972Z,22.05
2018-07-27T05:37:32.151Z,22.14
2018-07-27T05:39:59.311Z,22.27
2018-07-27T05:42:26.528Z,22.40
2018-07-27T05:44:53.652Z,22.53
2018-07-27T05:47:20.769Z,22.68
2018-07-27T05:49:48.864Z,22.82
2018-07-27T05:52:16.056Z,22.95
2018-07-27T05:54:43.252Z,23.02
2018-07-27T05:57:10.456Z,23.17
2018-07-27T05:59:37.593Z,23.31
2018-07-27T06:02:04.737Z,23.40
2018-07-27T06:04:31.919Z,23.47
2018-07-27T06:06:59.090Z,23.58
2018-07-27T06:09:26.259Z,23.69
2018-07-27T06:11:53.482Z,23.81
2018-07-27T06:14:20.651Z,23.91
2018-07-27T06:16:47.770Z,24.00
2018-07-27T06:19:14.984Z,24.07
2018-07-27T06:21:42.267Z,24.20
2018-07-27T06:24:09.505Z,24.34
2018-07-27T06:26:36.685Z,24.42
2018-07-27T06:29:03.830Z,24.48
2018-07-27T06:31:30.988Z,24.64
2018-07-27T06:33:58.183Z,24.78
2018-07-27T06:36:25.364Z,24.90
2018-07-27T06:38:52.559Z,24.96
2018-07-27T06:41:19.804Z,25.04
2018-07-27T06:43:46.969Z,25.01
2018-07-27T06:46:14.139Z,25.18
2018-07-27T06:48:41.284Z,25.35
2018-07-27T06:51:08.440Z,25.52
2018-07-27T06:53:35.631Z,25.67
2018-07-27T06:56:02.812Z,25.69
2018-07-27T06:58:30.013Z,25.85
2018-07-27T07:00:57.143Z,26.00
2018-07-27T07:03:24.323Z,26.15
2018-07-27T07:05:51.471Z,26.21
2018-07-27T07:08:18.604Z,26.28
2018-07-27T07:10:46.069Z,26.41
2018-07-27T07:13:13.220Z,26.52
2018-07-27T07:15:40.373Z,26.64
2018-07-27T07:18:07.598Z,26.82
2018-07-27T07:20:34.733Z,26.82
2018-07-27T07:23:01.947Z,26.95
2018-07-27T07:25:29.369Z,27.19
2018-07-27T07:27:56.344Z,27.33
2018-07-27T07:30:23.467Z,27.40
2018-07-27T07:32:50.636Z,27.57
2018-07-27T07:35:17.855Z,27.66
2018-07-27T07:37:45.064Z,27.59
2018-07-27T07:40:12.338Z,27.73
2018-07-27T07:42:39.681Z,27.81
2018-07-27T07:45:07.046Z,28.07
2018-07-27T07:47:34.347Z,28.18
2018-07-27T07:50:01.473Z,28.41
2018-07-27T07:52:28.584Z,28.34
2018-07-27T07:54:55.763Z,28.38
2018-07-27T07:57:22.923Z,28.46
2018-07-27T07:59:50.250Z,28.51
2018-07-27T08:02:17.425Z,28.39
2018-07-27T08:04:44.551Z,28.55
2018-07-27T08:07:11.655Z,28.71
2018-07-27T08:09:39.277Z,28.71
2018-07-27T08:12:06.553Z,28.97
2018-07-27T08:14:33.679Z,28.83
2018-07-27T08:17:00.892Z,28.86
2018-07-27T08:19:28.042Z,29.11
2018-07-27T08:21:55.262Z,29.26
2018-07-27T08:24:22.628Z,29.28
2018-07-27T08:26:57.843Z,29.42
2018-07-27T08:29:27.400Z,29.29
2018-07-27T08:31:55.105Z,29.53
2018-07-27T08:34:22.632Z,29.53
2018-07-27T08:36:50.414Z,29.40
2018-07-27T08:39:18.852Z,29.73
2018-07-27T08:41:46.617Z,29.96
2018-07-27T08:44:15.515Z,29.96
2018-07-27T08:46:42.780Z,30.04
2018-07-27T08:49:10.360Z,29.98
2018-07-27T08:51:37.592Z,30.23
2018-07-27T08:54:04.781Z,30.69
2018-07-27T08:56:31.976Z,30.74
2018-07-27T08:58:59.285Z,30.53
2018-07-27T09:01:26.482Z,30.57
2018-07-27T09:03:53.723Z,30.69
2018-07-27T09:06:20.909Z,31.04
2018-07-27T09:08:48.901Z,30.74
2018-07-27T09:11:16.213Z,30.46
2018-07-27T09:13:43.398Z,30.40
2018-07-27T09:16:10.526Z,29.88
2018-07-27T09:18:37.805Z,30.11
2018-07-27T09:21:05.075Z,30.51
2018-07-27T09:23:32.406Z,30.13
2018-07-27T09:25:59.564Z,29.72
2018-07-27T09:28:27.391Z,29.43
2018-07-27T09:30:55.383Z,29.10
2018-07-27T09:33:22.585Z,29.15
2018-07-27T09:35:50.041Z,29.19
2018-07-27T09:38:17.163Z,29.78
2018-07-27T09:40:44.364Z,29.88
2018-07-27T09:43:11.580Z,30.23
2018-07-27T09:45:38.687Z,30.90
2018-07-27T09:48:05.996Z,31.61
2018-07-27T09:50:33.201Z,31.24
2018-07-27T09:53:00.423Z,30.57
2018-07-27T09:55:27.588Z,30.40
2018-07-27T09:57:54.801Z,30.64
2018-07-27T10:00:28.589Z,31.24
2018-07-27T10:02:55.816Z,31.63
2018-07-27T10:05:22.953Z,31.61
2018-07-27T10:07:50.095Z,31.82
2018-07-27T10:10:17.406Z,32.25
2018-07-27T10:12:44.770Z,32.54
2018-07-27T10:15:11.874Z,31.39
2018-07-27T10:17:39.033Z,31.13
2018-07-27T10:20:06.213Z,31.68
2018-07-27T10:22:33.383Z,32.38
2018-07-27T10:25:00.717Z,32.74
2018-07-27T10:27:27.868Z,32.65
2018-07-27T10:29:55.024Z,33.04
2018-07-27T10:32:22.289Z,32.83
2018-07-27T10:34:49.464Z,33.03
2018-07-27T10:37:16.772Z,32.92
2018-07-27T10:39:43.952Z,32.13
2018-07-27T10:42:11.095Z,32.22
2018-07-27T10:44:38.288Z,32.17
2018-07-27T10:47:05.664Z,32.87
2018-07-27T10:49:33.159Z,33.46
2018-07-27T10:52:00.331Z,34.05
2018-07-27T10:54:27.901Z,34.51
2018-07-27T10:56:55.027Z,34.77
2018-07-27T10:59:22.156Z,34.82
2018-07-27T11:01:49.448Z,34.96
2018-07-27T11:04:16.572Z,35.53
2018-07-27T11:06:43.690Z,35.95
2018-07-27T11:09:11.015Z,36.08
2018-07-27T11:11:38.176Z,36.39
2018-07-27T11:14:05.531Z,36.52
2018-07-27T11:16:32.769Z,35.80
2018-07-27T11:18:59.907Z,34.62
2018-07-27T11:21:27.075Z,35.05
2018-07-27T11:23:54.655Z,35.39
2018-07-27T11:26:21.924Z,35.98
2018-07-27T11:28:49.036Z,35.71
2018-07-27T11:31:16.229Z,36.49
2018-07-27T11:33:43.372Z,36.54
2018-07-27T11:36:10.533Z,36.86
2018-07-27T11:38:37.828Z,37.31
2018-07-27T11:41:05.033Z,38.01
2018-07-27T11:43:32.177Z,38.19
2018-07-27T11:45:59.409Z,38.23
2018-07-27T11:48:26.515Z,37.96
2018-07-27T11:50:53.792Z,38.38
2018-07-27T11:53:21.319Z,37.77
2018-07-27T11:55:48.443Z,38.85
2018-07-27T11:58:15.568Z,39.10
2018-07-27T12:00:42.806Z,39.50
2018-07-27T12:03:10.156Z,39.71
2018-07-27T12:05:37.340Z,39.58
2018-07-27T12:08:04.529Z,39.82
2018-07-27T12:10:31.671Z,40.52
2018-07-27T12:12:58.868Z,39.85
2018-07-27T12:15:26.188Z,39.72
2018-07-27T12:17:53.344Z,37.42
2018-07-27T12:20:20.487Z,36.91
2018-07-27T12:22:47.747Z,37.10
2018-07-27T12:25:14.868Z,36.74
2018-07-27T12:27:42.202Z,34.64
2018-07-27T12:30:09.751Z,34.03
2018-07-27T12:32:36.911Z,33.69
2018-07-27T12:35:04.036Z,33.71
2018-07-27T12:37:31.232Z,34.05
2018-07-27T12:39:58.586Z,34.13
2018-07-27T12:42:25.708Z,34.56
2018-07-27T12:44:52.912Z,33.79
2018-07-27T12:47:20.057Z,33.80
2018-07-27T12:49:47.223Z,33.06
2018-07-27T12:52:14.540Z,33.02
2018-07-27T12:54:41.637Z,32.90
2018-07-27T12:57:08.783Z,33.26
2018-07-27T12:59:36.170Z,33.19
2018-07-27T13:02:03.373Z,32.94
2018-07-27T13:04:30.662Z,32.69
2018-07-27T13:06:57.836Z,32.37
2018-07-27T13:09:24.996Z,31.95
2018-07-27T13:11:52.188Z,31.62
2018-07-27T13:14:19.410Z,31.50
2018-07-27T13:16:46.714Z,31.18
2018-07-27T13:19:14.745Z,31.40
2018-07-27T13:21:41.959Z,31.62
2018-07-27T13:24:09.086Z,32.05
2018-07-27T13:26:36.257Z,32.62
2018-07-27T13:29:03.583Z,33.26
2018-07-27T13:31:45.215Z,33.65
2018-07-27T13:37:15.268Z,33.05
2018-07-27T13:39:44.191Z,32.40
2018-07-27T13:42:12.027Z,32.29
2018-07-27T13:44:39.419Z,32.62
2018-07-27T13:47:07.283Z,32.88
2018-07-27T13:49:34.485Z,32.63
2018-07-27T13:52:02.716Z,32.81
2018-07-27T13:54:31.048Z,32.99
2018-07-27T13:56:58.631Z,33.36
2018-07-27T13:59:25.779Z,33.65
2018-07-27T14:01:52.957Z,33.02
2018-07-27T14:04:20.288Z,33.70
2018-07-27T14:06:48.991Z,34.07
2018-07-27T14:09:16.232Z,34.45
2018-07-27T14:11:43.411Z,34.40
2018-07-27T14:14:10.891Z,34.92
2018-07-27T14:16:38.561Z,34.94
2018-07-27T14:19:05.734Z,34.77
2018-07-27T14:21:32.896Z,33.75
2018-07-27T14:24:00.189Z,33.58
2018-07-27T14:26:27.361Z,33.51
2018-07-27T14:28:55.511Z,33.10
2018-07-27T14:31:22.841Z,33.33
2018-07-27T14:33:50.613Z,33.25
2018-07-27T14:36:17.791Z,32.99
2018-07-27T14:38:44.937Z,33.35
2018-07-27T14:41:12.247Z,33.65
2018-07-27T14:43:39.431Z,32.93
2018-07-27T14:46:07.038Z,32.84
2018-07-27T14:48:34.285Z,33.18
2018-07-27T14:51:01.785Z,33.60
2018-07-27T14:53:29.063Z,33.38
2018-07-27T14:55:56.252Z,33.82
2018-07-27T14:58:23.403Z,33.61
2018-07-27T15:00:50.588Z,33.32
2018-07-27T15:03:17.878Z,32.92
2018-07-27T15:05:45.205Z,32.47
2018-07-27T15:08:12.457Z,32.44
2018-07-27T15:10:39.643Z,32.28
2018-07-27T15:13:06.797Z,32.94
2018-07-27T15:15:33.945Z,33.70
2018-07-27T15:18:01.282Z,34.57
2018-07-27T15:20:28.407Z,35.28
2018-07-27T15:22:55.810Z,35.60
2018-07-27T15:25:23.089Z,35.73
2018-07-27T15:27:50.207Z,35.31
2018-07-27T15:30:18.204Z,34.85
2018-07-27T15:32:45.470Z,35.03
2018-07-27T15:35:12.623Z,34.92
2018-07-27T15:37:39.807Z,34.32
2018-07-27T15:40:07.075Z,34.73
2018-07-27T15:42:34.380Z,34.50
2018-07-27T15:45:01.545Z,35.79
2018-07-27T15:47:29.071Z,35.85
2018-07-27T15:49:56.174Z,37.11
2018-07-27T15:52:23.313Z,38.33
2018-07-27T15:54:50.758Z,39.56
2018-07-27T15:57:17.929Z,40.04
2018-07-27T15:59:45.136Z,42.03
2018-07-27T16:02:12.436Z,42.25
2018-07-27T16:04:39.680Z,42.83
2018-07-27T16:07:06.943Z,41.69
2018-07-27T16:09:34.122Z,40.73
2018-07-27T16:12:01.327Z,38.05
2018-07-27T16:14:28.497Z,37.24
2018-07-27T16:16:56.150Z,38.38
2018-07-27T16:19:24.460Z,38.18
2018-07-27T16:21:51.658Z,36.35
2018-07-27T16:24:18.821Z,35.45
2018-07-27T16:26:45.952Z,34.71
2018-07-27T16:29:13.070Z,35.19
2018-07-27T16:31:40.455Z,33.69
2018-07-27T16:34:07.592Z,33.00
2018-07-27T16:36:34.820Z,32.46
2018-07-27T16:39:02.067Z,31.99
2018-07-27T16:41:29.267Z,31.92
2018-07-27T16:43:56.557Z,31.66
2018-07-27T16:46:23.761Z,31.78
2018-07-27T16:48:50.913Z,31.31
2018-07-27T16:51:18.109Z,31.08
2018-07-27T16:53:45.303Z,30.90
2018-07-27T16:56:12.589Z,30.84
2018-07-27T16:58:39.771Z,31.02
2018-07-27T17:01:06.952Z,31.62
2018-07-27T17:03:34.084Z,31.42
2018-07-27T17:06:01.237Z,31.30
2018-07-27T17:08:28.589Z,31.16
2018-07-27T17:10:55.702Z,31.04
2018-07-27T17:13:22.846Z,30.93
2018-07-27T17:15:50.064Z,31.08
2018-07-27T17:18:17.254Z,30.84
2018-07-27T17:20:44.651Z,30.71
2018-07-27T17:23:12.427Z,30.82
2018-07-27T17:25:39.670Z,30.67
2018-07-27T17:28:06.824Z,30.42
2018-07-27T17:30:34.037Z,30.25
2018-07-27T17:33:01.324Z,30.24
2018-07-27T17:35:28.483Z,30.19
2018-07-27T17:37:55.657Z,29.99
2018-07-27T17:40:22.898Z,30.09
2018-07-27T17:42:50.048Z,29.95
2018-07-27T17:45:17.739Z,29.84
2018-07-27T17:47:44.901Z,29.69
2018-07-27T17:50:12.109Z,29.66
2018-07-27T17:52:39.316Z,29.58
2018-07-27T17:55:07.410Z,29.23
2018-07-27T17:57:34.949Z,29.17
2018-07-27T18:00:02.341Z,29.25
2018-07-27T18:02:29.556Z,29.10
2018-07-27T18:04:56.694Z,29.00
2018-07-27T18:07:24.083Z,28.79
2018-07-27T18:09:51.224Z,28.62
2018-07-27T18:12:18.319Z,28.43
2018-07-27T18:14:46.143Z,28.42
2018-07-27T18:17:13.716Z,28.20
2018-07-27T18:19:41.180Z,28.14
2018-07-27T18:22:08.711Z,28.12
2018-07-27T18:24:35.943Z,27.90
2018-07-27T18:27:03.178Z,27.98
2018-07-27T18:29:30.494Z,27.74
2018-07-27T18:31:57.749Z,27.64
2018-07-27T18:34:24.967Z,27.53
2018-07-27T18:36:52.259Z,27.47
2018-07-27T18:39:19.399Z,27.43
2018-07-27T18:41:46.597Z,27.31
2018-07-27T18:44:15.270Z,27.25
2018-07-27T18:46:42.449Z,27.21
2018-07-27T18:49:10.029Z,27.16
2018-07-27T18:51:37.208Z,26.99
2018-07-27T18:54:04.853Z,26.95
2018-07-27T18:56:32.140Z,26.83
2018-07-27T18:58:59.362Z,26.75
2018-07-27T19:01:26.592Z,26.75
2018-07-27T19:03:53.788Z,26.69
2018-07-27T19:06:22.108Z,26.58
2018-07-27T19:08:49.657Z,26.43
2018-07-27T19:11:17.005Z,26.33
2018-07-27T19:13:44.831Z,26.20
2018-07-27T19:16:11.991Z,26.05
2018-07-27T19:18:39.600Z,25.91
2018-07-27T19:21:06.907Z,25.81
2018-07-27T19:23:34.136Z,25.72
2018-07-27T19:26:01.471Z,25.59
2018-07-27T19:28:28.644Z,25.47
2018-07-27T19:30:57.105Z,25.32
2018-07-27T19:33:24.426Z,25.19
2018-07-27T19:35:51.755Z,25.04
2018-07-27T19:38:19.029Z,24.94
2018-07-27T19:40:46.289Z,24.82
2018-07-27T19:43:13.514Z,24.77
2018-07-27T19:45:40.651Z,24.76
2018-07-27T19:48:08.335Z,24.65
2018-07-27T19:50:35.651Z,24.78
2018-07-27T19:53:02.771Z,24.84
2018-07-27T19:55:30.966Z,24.77
2018-07-27T19:57:58.164Z,24.67
2018-07-27T20:00:25.322Z,24.58
2018-07-27T20:02:52.511Z,24.48
2018-07-27T20:05:19.755Z,24.38
2018-07-27T20:07:47.252Z,24.33
2018-07-27T20:10:14.547Z,24.26
2018-07-27T20:12:41.760Z,24.16
2018-07-27T20:15:09.104Z,24.06
2018-07-27T20:17:36.312Z,23.98
2018-07-27T20:20:06.077Z,23.91
2018-07-27T20:22:33.467Z,23.86
2018-07-27T20:25:00.738Z,23.89
2018-07-27T20:27:28.231Z,23.88
2018-07-27T20:29:55.460Z,23.96
2018-07-27T20:32:22.691Z,23.97
2018-07-27T20:34:49.866Z,24.00
2018-07-27T20:37:17.080Z,23.91
2018-07-27T20:39:44.321Z,23.86
2018-07-27T20:42:11.485Z,23.88
2018-07-27T20:44:38.738Z,23.89
2018-07-27T20:47:06.660Z,23.66
2018-07-27T20:49:34.338Z,23.66
2018-07-27T20:52:01.684Z,23.54
2018-07-27T20:54:29.688Z,23.55
2018-07-27T20:56:57.368Z,23.44
2018-07-27T20:59:26.713Z,23.54
2018-07-27T21:02:00.975Z,23.51
2018-07-27T21:04:32.250Z,23.48
2018-07-27T21:06:59.966Z,23.48
2018-07-27T21:09:27.445Z,23.42
2018-07-27T21:11:54.725Z,23.38
2018-07-27T21:14:26.672Z,23.37
2018-07-27T21:16:59.116Z,23.28
2018-07-27T21:19:27.898Z,23.32
2018-07-27T21:21:58.488Z,23.28
2018-07-27T21:24:29.054Z,23.22
2018-07-27T21:26:56.279Z,23.15
2018-07-27T21:29:24.259Z,23.08
2018-07-27T21:31:51.729Z,23.03
2018-07-27T21:34:21.369Z,22.97
2018-07-27T21:36:48.694Z,22.91
2018-07-27T21:39:15.951Z,22.85
2018-07-27T21:41:43.047Z,22.77
2018-07-27T21:44:10.127Z,22.71
2018-07-27T21:46:38.695Z,22.59
2018-07-27T21:49:05.788Z,22.60
2018-07-27T21:51:34.014Z,22.55
2018-07-27T21:54:01.144Z,22.49
2018-07-27T21:56:28.303Z,22.39
2018-07-27T21:58:55.500Z,22.37
2018-07-27T22:01:22.862Z,22.33
2018-07-27T22:03:50.171Z,22.28
2018-07-27T22:06:17.895Z,22.25
2018-07-27T22:08:45.133Z,22.22
2018-07-27T22:11:12.228Z,22.19
2018-07-27T22:13:40.932Z,22.16
2018-07-27T22:16:09.110Z,22.13
2018-07-27T22:18:36.397Z,22.05
2018-07-27T22:21:03.522Z,21.98
2018-07-27T22:23:30.683Z,21.97
2018-07-27T22:25:57.795Z,21.92
2018-07-27T22:28:25.390Z,21.87
2018-07-27T22:30:52.674Z,21.83
2018-07-27T22:33:19.879Z,21.78
2018-07-27T22:35:47.178Z,21.76
2018-07-27T22:38:14.329Z,21.72
2018-07-27T22:40:41.849Z,21.66
2018-07-27T22:43:09.391Z,21.62
2018-07-27T22:45:36.785Z,21.57
2018-07-27T22:48:04.097Z,21.53
2018-07-27T22:50:31.212Z,21.48
2018-07-27T22:52:59.344Z,21.42
2018-07-27T22:55:26.516Z,21.36
2018-07-27T22:57:54.513Z,21.36
2018-07-27T23:00:21.753Z,21.24
2018-07-27T23:02:49.014Z,21.29
2018-07-27T23:05:16.248Z,21.30
2018-07-27T23:07:43.937Z,21.25
2018-07-27T23:10:11.068Z,21.24
2018-07-27T23:12:38.284Z,21.25
2018-07-27T23:15:08.748Z,21.29
2018-07-27T23:17:35.873Z,21.30
2018-07-27T23:20:04.694Z,21.28
2018-07-27T23:22:32.082Z,21.27
2018-07-27T23:24:59.167Z,21.20
2018-07-27T23:27:26.631Z,21.23
2018-07-27T23:29:53.845Z,21.19
2018-07-27T23:32:21.010Z,21.13
2018-07-27T23:34:49.266Z,21.12
2018-07-27T23:37:16.580Z,21.07
2018-07-27T23:39:44.882Z,21.07
2018-07-27T23:42:12.968Z,21.03
2018-07-27T23:44:40.119Z,20.97
2018-07-27T23:47:07.231Z,20.94
2018-07-27T23:49:35.341Z,20.92
2018-07-27T23:52:02.890Z,20.90
2018-07-27T23:54:29.979Z,20.91
2018-07-27T23:56:57.097Z,20.87
2018-07-27T23:59:24.263Z,20.82
